Tiempo atmosférico en la estación meteorológica de Autilla del Pino, Palencia (874 m.)



Fecha
DESCASC
Temp. máxima en grados centígrados (hora)
DESCASC
Temp. mínima en grados centígrados (hora)
DESCASC
Temp. media en grados centígrados
DESCASC
Racha de viento máxima en m/sg (hora)
DESCASC
Velocidad máxima media en intervalos de 10 minutos(hora)
DESCASC
Precipitaciones diarias en mm
DESCASC
Precipitaciones de 00:00 a 06:00 en mm
DESCASC
Precipitaciones de 06:00 a 12:00 en mm
DESCASC
Precipitaciones de 12:00 a 18:00 en mm
DESCASC
Precipitaciones de 18:00 a 24:00 en mm
DESCASC
16-06-2019 27.7 (17:50) 5.4 (05:00) 16.6 10 (15:10) 5.56 (19:20) 0 0 0 0 0
15-06-2019 22.5 (20:00) 5.8 (06:50) 14.2 16.11 (01:40) 6.39 (01:00) 0 0 0 0 0
14-06-2019 23.2 (16:10) 5.7 (05:40) 14.5 14.72 (00:40) 8.33 (19:40) 0 0 0 0 0
13-06-2019 23.8 (16:40) 3.2 (00:00) 13.5 14.72 (16:30) 8.61 (16:20) 0 0 0 0 0
12-06-2019 20.3 (20:50) 0.3 (00:00) 10.3 8.61 (14:20) 5.83 (23:40) 0 0 0 0 0
11-06-2019 18.5 (17:10) 4.2 (00:00) 11.3 9.72 (14:10) 7.22 (20:10) 0.2 0.2 0 0 0
10-06-2019 20.8 (18:20) 3 (00:00) 11.9 10.83 (22:00) 7.78 (22:10) 0 0 0 0 0
09-06-2019 23.4 (17:30) 5.6 (00:00) 14.5 14.72 (20:20) 8.89 (20:40) 0 0 0 0 0
08-06-2019 24.4 (18:50) 3.4 (00:00) 13.9 10.56 (23:30) 7.78 (23:30) 0 0 0 0 0
07-06-2019 17.8 (17:00) 5 (00:00) 11.4 13.61 (04:10) 9.17 (04:10) 0.2 0.2 0 0 0
06-06-2019 -- (--) -- (--) -- 18.89 (22:30) 12.78 (19:50) 1.7 0 0 0 1.7
05-06-2019 17.5 (16:10) 6.8 (00:00) 12.2 11.39 (14:00) 8.33 (15:00) 3 3 0 0 0
04-06-2019 21.9 (15:20) 9.6 (00:00) 15.8 13.06 (18:50) 9.44 (18:50) 0 0 0 0 0
03-06-2019 29.6 (19:10) 13.3 (00:00) 21.5 11.94 (18:10) 7.5 (19:10) 0 0 0 0 0
02-06-2019 31 (15:40) 11.6 (00:00) 21.3 13.61 (16:30) 8.89 (16:20) 0 0 0 0 0
01-06-2019 32.8 (19:30) 11.2 (00:00) 22 15.28 (19:10) 5.28 (04:30) 0 0 0 0 0
31-05-2019 30.9 (19:00) 9.8 (00:00) 20.3 12.5 (02:00) 4.72 (01:20) 0 0 0 0 0
30-05-2019 28.4 (19:00) 6 (00:00) 17.2 11.39 (18:10) 5.28 (18:00) 0 0 0 0 0
29-05-2019 22.7 (19:00) 3.8 (00:00) 13.3 16.11 (19:20) 6.39 (16:10) 0 0 0 0 0
28-05-2019 20.3 (17:20) 5.2 (00:00) 12.7 11.39 (18:50) 7.78 (19:50) 0 0 0 0 0
27-05-2019 23.9 (16:40) 6.6 (00:00) 15.2 11.11 (22:10) 7.78 (22:50) 0 0 0 0 0
26-05-2019 24.4 (19:00) 5.5 (00:00) 14.9 8.61 (19:30) 5.83 (20:50) 0 0 0 0 0
25-05-2019 19.2 (18:50) 4.4 (00:00) 11.8 11.67 (10:50) 7.22 (10:00) 0 0 0 0 0
24-05-2019 18.6 (16:10) 7.7 (00:00) 13.2 12.5 (18:20) 8.61 (18:50) 0 0 0 0 0
23-05-2019 24.8 (18:40) 9.6 (00:00) 17.2 18.33 (23:00) 8.89 (22:10) 0 0 0 0 0
22-05-2019 25.6 (19:10) 4.6 (00:00) 15.1 8.89 (00:30) 5.83 (02:00) 0 0 0 0 0

Gráficas

Temp. máximas Temp. mínimas Temp. medias Precipitaciones Rachas de viento máximas Velocidades máximas media en intervalos de 10 minutos

Datos horarios

Fecha y hora oficial Temperatura (ºC) Velocidad del viento (km/h) Dirección del viento Racha (km/h) Dirección de racha Precipitación (mm) Presión (hPa) Tendencia (hPa) Humedad (%)
2019-06-20 23:00:00 11.6 25 Nordeste 51 Nordeste 0 -- -- 97
2019-06-20 22:00:00 12 29 Nordeste 48 Nordeste 0 -- -- 97
2019-06-20 21:00:00 14.4 18 Este 42 Nordeste 0 -- -- 84
2019-06-20 20:00:00 16.3 26 Nordeste 45 Nordeste 0 -- -- 68
2019-06-20 19:00:00 21.4 8 Nordeste 21 Este 0 -- -- 41
2019-06-20 18:00:00 21 13 Nordeste 19 Nordeste 0 -- -- 43
2019-06-20 17:00:00 19.9 10 Este 23 Norte 0 -- -- 64
2019-06-20 16:00:00 19.2 17 Nordeste 26 Nordeste 0 -- -- 48
2019-06-20 15:00:00 21.8 8 Este 32 Nordeste 0 -- -- 42
2019-06-20 14:00:00 21 6 Este 20 Este 0 -- -- 45
2019-06-20 13:00:00 20.8 9 Este 25 Este 0 -- -- 49
2019-06-20 12:00:00 18 11 Este 21 Nordeste 0 -- -- 61
2019-06-20 11:00:00 16.2 12 Nordeste 19 Nordeste 0 -- -- 70
2019-06-20 10:00:00 15.3 11 Nordeste 18 Nordeste 0 -- -- 75
2019-06-20 09:00:00 13.6 10 Nordeste 18 Este 0 -- -- 87
2019-06-20 08:00:00 12.3 14 Este 21 Este 0 -- -- 95
2019-06-20 07:00:00 11.4 15 Este 21 Este 0 -- -- 96
2019-06-20 06:00:00 11.3 9 Nordeste 13 Este 0 -- -- 95
2019-06-20 05:00:00 11.7 7 Nordeste 18 Este 0 -- -- 91
2019-06-20 04:00:00 11.9 13 Este 19 Este 0 -- -- 88
2019-06-20 03:00:00 10.8 10 Este 15 Nordeste 0 -- -- 91
2019-06-20 02:00:00 11.6 10 Norte 18 Noroeste 0 -- -- 76
2019-06-20 01:00:00 13.3 14 Noroeste 23 Oeste 0 -- -- 65
2019-06-20 00:00:00 13.9 14 Oeste 18 Oeste 0 -- -- 62
2019-06-19 23:00:00 15.7 13 Oeste 22 Oeste 0 -- -- 55
2019-06-19 22:00:00 18 17 Oeste 27 Oeste 0 -- -- 48
2019-06-19 21:00:00 19.8 21 Oeste 34 Oeste 0 -- -- 43
2019-06-19 20:00:00 22 17 Oeste 33 Oeste 0 -- -- 41
2019-06-19 19:00:00 22 22 Oeste 39 Oeste 0 -- -- 39
2019-06-19 18:00:00 21.5 24 Oeste 40 Oeste 0 -- -- 41
2019-06-19 17:00:00 22.5 21 Oeste 40 Oeste 0 -- -- 41
2019-06-19 16:00:00 23.5 23 Oeste 35 Oeste 0 -- -- 35
2019-06-19 15:00:00 21.6 17 Oeste 32 Oeste 0 -- -- 45
2019-06-19 14:00:00 19.5 18 Oeste 30 Oeste 0 -- -- 59
2019-06-19 13:00:00 15.5 13 Oeste 37 Oeste 0 -- -- 90
2019-06-19 12:00:00 15.4 14 Oeste 22 Oeste 0 -- -- 86
2019-06-19 11:00:00 15.1 17 Oeste 30 Sudoeste 0 -- -- 83
2019-06-19 10:00:00 17.4 18 Oeste 29 Oeste 0 -- -- 64
2019-06-19 09:00:00 14.8 14 Sudoeste 21 Sudoeste 0 -- -- 78
2019-06-19 08:00:00 13 12 Sudoeste 22 Oeste 0 -- -- 89
2019-06-19 07:00:00 11.7 13 Sudoeste 24 Oeste 0 -- -- 95
2019-06-19 06:00:00 12.3 19 Oeste 26 Oeste 0 -- -- 94
2019-06-19 05:00:00 12.4 17 Oeste 24 Oeste 0 -- -- 91
2019-06-19 04:00:00 11.9 15 Oeste 19 Oeste 0 -- -- 92
2019-06-19 03:00:00 11.5 14 Oeste 16 Oeste 0 -- -- 91
2019-06-19 02:00:00 13.1 13 Oeste 21 Oeste 0 -- -- 85
2019-06-19 01:00:00 14.3 16 Oeste 25 Oeste 0 -- -- 80
2019-06-19 00:00:00 15.8 15 Oeste 27 Oeste 0 -- -- 72
2019-06-18 23:00:00 16.3 22 Oeste 32 Oeste 0 -- -- 64
2019-06-18 22:00:00 18.7 21 Oeste 35 Oeste 0 -- -- 46
2019-06-18 21:00:00 20.9 27 Sudoeste 53 Oeste 0 -- -- 38
2019-06-18 20:00:00 22.7 40 Oeste 56 Oeste 0 -- -- 35
2019-06-18 19:00:00 23.7 36 Oeste 51 Oeste 0 -- -- 34
2019-06-18 18:00:00 25.4 34 Sudoeste 59 Sudoeste 0 -- -- 27
2019-06-18 17:00:00 27 32 Sudoeste 64 Sudoeste 0 -- -- 24
2019-06-18 16:00:00 25.7 40 Sudoeste 62 Oeste 0 -- -- 22
2019-06-18 15:00:00 26.1 37 Sudoeste 57 Oeste 0 -- -- 17
2019-06-18 14:00:00 26.3 31 Sudoeste 46 Sudoeste 0 -- -- 18
2019-06-18 13:00:00 25.8 29 Sudoeste 50 Oeste 0 -- -- 21
2019-06-18 12:00:00 24.2 27 Sudoeste 42 Sudoeste 0 -- -- 24
2019-06-18 11:00:00 21.8 28 Sudoeste 41 Oeste 0 -- -- 30
2019-06-18 10:00:00 20.7 16 Oeste 27 Oeste 0 -- -- 35
2019-06-18 09:00:00 19.1 16 Oeste 27 Oeste 0 -- -- 37
2019-06-18 08:00:00 15.3 9 Sur 14 Sur 0 -- -- 41
2019-06-18 07:00:00 14.6 4 Sudeste 11 Sudeste 0 -- -- 42
2019-06-18 06:00:00 15.1 9 Sudeste 13 Sudeste 0 -- -- 40
2019-06-18 05:00:00 15 5 Sudeste 14 Sudeste 0 -- -- 39
2019-06-18 04:00:00 14.3 9 Este 15 Nordeste 0 -- -- 39
2019-06-18 03:00:00 15 12 Nordeste 14 Nordeste 0 -- -- 37
2019-06-18 02:00:00 17.4 9 Nordeste 21 Oeste 0 -- -- 33
2019-06-18 01:00:00 18.4 12 Oeste 21 Noroeste 0 -- -- 32
2019-06-18 00:00:00 18 15 Oeste 21 Noroeste 0 -- -- 31
2019-06-17 23:00:00 18.8 11 Noroeste 14 Noroeste 0 -- -- 29
2019-06-17 22:00:00 19.8 10 Noroeste 24 Noroeste 0 -- -- 26
2019-06-17 21:00:00 21.7 18 Noroeste 39 Oeste 0 -- -- 24
2019-06-17 20:00:00 24.5 24 Noroeste 38 Oeste 0 -- -- 20
2019-06-17 19:00:00 26.2 22 Oeste 28 Oeste 0 -- -- 19
2019-06-17 18:00:00 26.6 19 Oeste 29 Sudoeste 0 -- -- 19
2019-06-17 17:00:00 27.7 19 Sudoeste 36 Sudoeste 0 -- -- 20
2019-06-17 16:00:00 28.3 21 Sudoeste 36 Sudoeste 0 -- -- 20
2019-06-17 15:00:00 27.5 19 Sur 42 Sudoeste 0 -- -- 22
2019-06-17 14:00:00 26.2 23 Sur 38 Sudoeste 0 -- -- 23
2019-06-17 13:00:00 25.8 16 Sudoeste 27 Sudoeste 0 -- -- 24
2019-06-17 12:00:00 24.5 9 Sudoeste 23 Sudoeste 0 -- -- 27
2019-06-17 11:00:00 21.9 10 Sur 17 Sudoeste 0 -- -- 29
2019-06-17 10:00:00 19.3 8 Sudoeste 15 Sudoeste 0 -- -- 37
2019-06-17 09:00:00 16.6 8 Sur 14 Sudeste 0 -- -- 57
2019-06-17 08:00:00 12.9 10 Este 14 Este 0 -- -- 88
2019-06-17 07:00:00 9.4 10 Sudeste 14 Sudoeste 0 -- -- 95
2019-06-17 06:00:00 9.9 2 Sudeste 14 Este 0 -- -- 94
2019-06-17 05:00:00 10.3 12 Este 14 Este 0 -- -- 94
2019-06-17 04:00:00 11 13 Este 15 Este 0 -- -- 92
2019-06-17 03:00:00 11.3 7 Este 12 Este 0 -- -- 88
2019-06-17 02:00:00 12.7 9 Nordeste 18 Este 0 -- -- 76
2019-06-17 01:00:00 13.9 13 Nordeste 16 Nordeste 0 -- -- 66
2019-06-17 00:00:00 18.1 6 Nordeste 8 Norte 0 -- -- 27
2019-06-16 23:00:00 18.5 7 Norte 12 Noroeste 0 -- -- 27
2019-06-16 22:00:00 19.6 10 Noroeste 17 Noroeste 0 -- -- 23
2019-06-16 21:00:00 23.9 12 Noroeste 24 Noroeste 0 -- -- 18
2019-06-16 20:00:00 26.3 17 Oeste 32 Oeste 0 -- -- 17
2019-06-16 19:00:00 26.9 18 Oeste 29 Oeste 0 -- -- 17
2019-06-16 18:00:00 27 10 Oeste 24 Sudoeste 0 -- -- 17
2019-06-16 17:00:00 26 14 Sudoeste 35 Sudoeste 0 -- -- 18
2019-06-16 16:00:00 26.1 15 Sudoeste 36 Sudeste 0 -- -- 19
2019-06-16 15:00:00 25.1 7 Sur 23 Sur 0 -- -- 21
2019-06-16 14:00:00 24.4 12 Sur 21 Sudeste 0 -- -- 23
2019-06-16 13:00:00 23.4 5 Sudeste 17 Sudeste 0 -- -- 26
2019-06-16 12:00:00 21.8 3 Este 15 Este 0 -- -- 34
2019-06-16 11:00:00 18.9 6 Sudeste 15 Sudeste 0 -- -- 41
2019-06-16 10:00:00 15.3 9 Este 20 Este 0 -- -- 51
2019-06-16 09:00:00 12.2 13 Este 21 Este 0 -- -- 64
2019-06-16 08:00:00 8.7 15 Este 21 Este 0 -- -- 81
2019-06-16 07:00:00 6.7 14 Este 20 Este 0 -- -- 93
2019-06-16 06:00:00 6.2 11 Este 16 Este 0 -- -- 95
2019-06-16 05:00:00 5.5 8 Nordeste 12 Nordeste 0 -- -- 95
2019-06-16 04:00:00 6.1 10 Nordeste 18 Nordeste 0 -- -- 95
2019-06-16 03:00:00 6.8 11 Nordeste 22 Este 0 -- -- 94
2019-06-16 02:00:00 9.2 18 Este 25 Este 0 -- -- 84
2019-06-16 01:00:00 10.3 18 Este 23 Este 0 -- -- 80
2019-06-16 00:00:00 12.1 17 Este 27 Nordeste 0 -- -- 68
2019-06-15 23:00:00 16.1 5 Nordeste 5 Nordeste 0 -- -- 33
2019-06-15 22:00:00 17 5 Nordeste 7 Noroeste 0 -- -- 32
2019-06-15 21:00:00 19.8 6 Norte 15 Noroeste 0 -- -- 27
2019-06-15 20:00:00 21.7 5 Oeste 17 Oeste 0 -- -- 26
2019-06-15 19:00:00 21.6 8 Norte 23 Oeste 0 -- -- 27
2019-06-15 18:00:00 21.8 5 Oeste 23 Noroeste 0 -- -- 28
2019-06-15 17:00:00 21.1 12 Oeste 23 Oeste 0 -- -- 30
2019-06-15 16:00:00 20.2 8 Oeste 28 Oeste 0 -- -- 31
2019-06-15 15:00:00 19.3 12 Noroeste 24 Noroeste 0 -- -- 35
2019-06-15 14:00:00 18.8 12 Oeste 26 Noroeste 0 -- -- 37
2019-06-15 13:00:00 16.8 3 Oeste 26 Oeste 0 -- -- 42
2019-06-15 12:00:00 15.9 9 Noroeste 18 Noroeste 0 -- -- 47
2019-06-15 11:00:00 14.5 10 Oeste 18 Oeste 0 -- -- 54
2019-06-15 10:00:00 12.4 12 Oeste 23 Oeste 0 -- -- 63
2019-06-15 09:00:00 9.9 14 Oeste 21 Oeste 0 -- -- 72
2019-06-15 08:00:00 7.4 7 Sudoeste 17 Oeste 0 -- -- 84
2019-06-15 07:00:00 6.1 8 Sudoeste 23 Oeste 0 -- -- 86
2019-06-15 06:00:00 7.3 19 Oeste 24 Oeste 0 -- -- 80
2019-06-15 05:00:00 8 17 Oeste 26 Oeste 0 -- -- 76
2019-06-15 04:00:00 8.4 20 Oeste 30 Oeste 0 -- -- 73
2019-06-15 03:00:00 8.9 20 Oeste 30 Oeste 0 -- -- 69
2019-06-15 02:00:00 9.6 20 Oeste 58 Oeste 0 -- -- 62
2019-06-15 01:00:00 11.2 23 Oeste 32 Oeste 0 -- -- 54
2019-06-15 00:00:00 12.2 22 Oeste 37 Oeste 0 -- -- 45
2019-06-14 23:00:00 14 25 Oeste 41 Oeste 0 -- -- 35
2019-06-14 22:00:00 14.8 21 Oeste 36 Oeste 0 -- -- 33
2019-06-14 21:00:00 16.7 28 Oeste 41 Oeste 0 -- -- 30
2019-06-14 20:00:00 19.7 26 Oeste 42 Oeste 0 -- -- 26
2019-06-14 19:00:00 21.2 26 Oeste 48 Oeste 0 -- -- 24
2019-06-14 18:00:00 22 28 Oeste 53 Oeste 0 -- -- 23
2019-06-14 17:00:00 22.4 24 Oeste 49 Sudoeste 0 -- -- 22
2019-06-14 16:00:00 22.4 16 Oeste 39 Oeste 0 -- -- 21
2019-06-14 15:00:00 21.8 22 Sudoeste 41 Sudoeste 0 -- -- 20
2019-06-14 14:00:00 21.3 12 Sudoeste 37 Sudoeste 0 -- -- 21
2019-06-14 13:00:00 20 12 Oeste 27 Oeste 0 -- -- 34
2019-06-14 12:00:00 18.8 4 Sudoeste 15 Sudoeste 0 -- -- 40
2019-06-14 11:00:00 16.8 4 Este 13 Sudoeste 0 -- -- 52
2019-06-14 10:00:00 13.8 4 Sudeste 14 Este 0 -- -- 64
2019-06-14 09:00:00 10.5 10 Nordeste 17 Este 0 -- -- 84
2019-06-14 08:00:00 7.9 11 Este 21 Este 0 -- -- 98
2019-06-14 07:00:00 7 13 Este 19 Este 0 -- -- 98
2019-06-14 06:00:00 5.9 11 Este 13 Este 0 -- -- 97
2019-06-14 05:00:00 6.4 7 Nordeste 19 Este 0 -- -- 96
2019-06-14 04:00:00 7 14 Este 22 Este 0 -- -- 95
2019-06-14 03:00:00 7.4 18 Este 26 Este 0 -- -- 93
2019-06-14 02:00:00 7.9 19 Este 29 Este 0 -- -- 91
2019-06-14 01:00:00 8.7 22 Este 53 Este 0 -- -- 84
2019-06-14 00:00:00 9.7 15 Nordeste 23 Norte 0 -- -- 71
2019-06-13 23:00:00 12.9 15 Noroeste 51 Noroeste 0 -- -- 32
2019-06-13 22:00:00 15.7 16 Noroeste 31 Oeste 0 -- -- 27
2019-06-13 21:00:00 19.9 21 Oeste 38 Oeste 0 -- -- 20
2019-06-13 20:00:00 21.8 22 Oeste 37 Noroeste 0 -- -- 19
2019-06-13 19:00:00 23.2 18 Oeste 37 Sudoeste 0 -- -- 19
2019-06-13 18:00:00 23 20 Sudoeste 47 Oeste 0 -- -- 18
2019-06-13 17:00:00 23 24 Oeste 53 Sudoeste 0 -- -- 18
2019-06-13 16:00:00 22.9 26 Oeste 48 Sudoeste 0 -- -- 18
2019-06-13 15:00:00 21.9 28 Sudoeste 41 Oeste 0 -- -- 18
2019-06-13 14:00:00 21.1 15 Sudoeste 34 Oeste 0 -- -- 23
2019-06-13 13:00:00 19.2 13 Sudoeste 33 Sur 0 -- -- 27
2019-06-13 12:00:00 17.7 8 Sur 20 Sur 0 -- -- 34
2019-06-13 11:00:00 14.7 6 Sudoeste 17 Sudeste 0 -- -- 45
2019-06-13 10:00:00 12.1 8 Este 17 Sudeste 0 -- -- 58
2019-06-13 09:00:00 9.2 10 Este 22 Este 0 -- -- 76
2019-06-13 08:00:00 6.3 14 Este 19 Este 0 -- -- 92
2019-06-13 07:00:00 4.4 11 Este 17 Este 0 -- -- 97
2019-06-13 06:00:00 3.5 8 Nordeste 17 Nordeste 0 -- -- 97
2019-06-13 05:00:00 4.5 14 Nordeste 17 Nordeste 0 -- -- 97
2019-06-13 04:00:00 5.4 13 Nordeste 19 Este 0 -- -- 95
2019-06-13 03:00:00 6.5 18 Este 25 Este 0 -- -- 89
2019-06-13 02:00:00 7.5 20 Este 27 Este 0 -- -- 84
2019-06-13 01:00:00 8.4 19 Este 29 Este 0 -- -- 80
2019-06-13 00:00:00 9.3 17 Este 27 Este 0 -- -- 69
2019-06-12 23:00:00 11.5 12 Nordeste 13 Nordeste 0 -- -- 33
2019-06-12 22:00:00 12.9 8 Nordeste 10 Norte 0 -- -- 30
2019-06-12 21:00:00 18.2 5 Noroeste 15 Oeste 0 -- -- 24
2019-06-12 20:00:00 18.2 10 Noroeste 21 Oeste 0 -- -- 23
2019-06-12 19:00:00 19.4 9 Noroeste 28 Oeste 0 -- -- 23
2019-06-12 18:00:00 19.1 7 Noroeste 24 Oeste 0 -- -- 24
2019-06-12 17:00:00 19.3 8 Oeste 24 Sudoeste 0 -- -- 24
2019-06-12 16:00:00 18.2 0 Calma 28 Oeste 0 -- -- 27
2019-06-12 15:00:00 17.1 9 Oeste 31 Oeste 0 -- -- 28
2019-06-12 14:00:00 15.8 14 Noroeste 27 Oeste 0 -- -- 31
2019-06-12 13:00:00 15 13 Oeste 22 Oeste 0 -- -- 34
2019-06-12 12:00:00 13.4 9 Oeste 24 Oeste 0 -- -- 37
2019-06-12 11:00:00 11.7 12 Noroeste 20 Noroeste 0 -- -- 43
2019-06-12 10:00:00 9.7 12 Noroeste 19 Noroeste 0 -- -- 50
2019-06-12 09:00:00 7.3 14 Noroeste 19 Noroeste 0 -- -- 64
2019-06-12 08:00:00 5.2 12 Oeste 17 Oeste 0 -- -- 78
2019-06-12 07:00:00 1.3 13 Oeste 15 Oeste 0 -- -- 89
2019-06-12 06:00:00 1.6 12 Oeste 15 Noroeste 0 -- -- 88
2019-06-12 05:00:00 0.7 8 Sudoeste 10 Noroeste 0 -- -- 87
2019-06-12 04:00:00 2.8 8 Noroeste 11 Norte 0 -- -- 76
2019-06-12 03:00:00 3.7 10 Norte 11 Norte 0 -- -- 75
2019-06-12 02:00:00 4.4 5 Norte 11 Norte 0 -- -- 76
2019-06-12 01:00:00 5.1 10 Norte 17 Norte 0 -- -- 71
2019-06-12 00:00:00 6.8 12 Nordeste 22 Norte 0 -- -- 60
2019-06-11 23:00:00 7.7 11 Norte 22 Norte 0 -- -- 54
2019-06-11 22:00:00 9.7 13 Norte 31 Noroeste 0 -- -- 44
2019-06-11 21:00:00 12.6 24 Norte 35 Noroeste 0 -- -- 37
2019-06-11 20:00:00 15.3 23 Noroeste 35 Noroeste 0 -- -- 32
2019-06-11 19:00:00 16.3 15 Norte 34 Noroeste 0 -- -- 30
2019-06-11 18:00:00 17.6 16 Noroeste 35 Norte 0 -- -- 27
2019-06-11 17:00:00 18.2 16 Noroeste 35 Norte 0 -- -- 27
2019-06-11 16:00:00 16.4 11 Norte 29 Nordeste 0 -- -- 31
2019-06-11 15:00:00 15.5 8 Norte 35 Noroeste 0 -- -- 33
2019-06-11 14:00:00 14.3 11 Nordeste 33 Norte 0 -- -- 36
2019-06-11 13:00:00 12.1 12 Norte 28 Norte 0 -- -- 41
2019-06-11 12:00:00 11 17 Norte 26 Noroeste 0 -- -- 46
2019-06-11 11:00:00 10.6 14 Norte 24 Norte 0 -- -- 53
2019-06-11 10:00:00 9.6 12 Noroeste 19 Norte 0 -- -- 68
2019-06-11 09:00:00 8.2 4 Nordeste 14 Este 0 -- -- 76
2019-06-11 08:00:00 6.6 8 Este 11 Este 0 -- -- 93
2019-06-11 07:00:00 5.1 9 Este 14 Este 0 -- -- 95
2019-06-11 06:00:00 4.4 5 Este 9 Nordeste 0 -- -- 94
2019-06-11 05:00:00 5.6 8 Este 17 Nordeste 0 -- -- 92
2019-06-11 04:00:00 6.4 13 Este 18 Este 0 -- -- 92
2019-06-11 03:00:00 6.5 10 Este 27 Nordeste 0.2 -- -- 90
2019-06-11 02:00:00 6.9 18 Nordeste 29 Este 0 -- -- 81
2019-06-11 01:00:00 7.5 22 Este 32 Nordeste 0 -- -- 74
2019-06-11 00:00:00 8.3 21 Nordeste 32 Este 0 -- -- 74
2019-06-10 23:00:00 9.4 25 Este 37 Nordeste 0 -- -- 72
2019-06-10 22:00:00 10.2 27 Nordeste 39 Nordeste 0 -- -- 68
2019-06-10 21:00:00 16.7 4 Nordeste 10 Nordeste 0 -- -- 30
2019-06-10 20:00:00 17.9 8 Noroeste 19 Oeste 0 -- -- 29
2019-06-10 19:00:00 20 4 Nordeste 19 Nordeste 0 -- -- 29
2019-06-10 18:00:00 19.2 9 Noroeste 20 Noroeste 0 -- -- 31
2019-06-10 17:00:00 18.1 9 Noroeste 18 Norte 0 -- -- 33
2019-06-10 16:00:00 17 5 Noroeste 22 Norte 0 -- -- 36
2019-06-10 15:00:00 16.7 9 Noroeste 26 Norte 0 -- -- 37
2019-06-10 14:00:00 15.3 5 Oeste 21 Oeste 0 -- -- 41
2019-06-10 13:00:00 13.9 8 Norte 21 Nordeste 0 -- -- 45
2019-06-10 12:00:00 12.6 5 Norte 18 Norte 0 -- -- 51
2019-06-10 11:00:00 11.9 9 Norte 19 Nordeste 0 -- -- 56
2019-06-10 10:00:00 11 12 Nordeste 19 Este 0 -- -- 66
2019-06-10 09:00:00 9.3 11 Nordeste 17 Nordeste 0 -- -- 75
2019-06-10 08:00:00 6.6 9 Nordeste 12 Nordeste 0 -- -- 97
2019-06-10 07:00:00 4 8 Nordeste 10 Nordeste 0 -- -- 97
2019-06-10 06:00:00 5.5 6 Nordeste 12 Nordeste 0 -- -- 98
2019-06-10 05:00:00 5.8 12 Nordeste 21 Este 0 -- -- 94
2019-06-10 04:00:00 6.4 15 Este 24 Este 0 -- -- 93
2019-06-10 03:00:00 6.8 15 Nordeste 25 Nordeste 0 -- -- 91
2019-06-10 02:00:00 7.3 16 Este 28 Este 0 -- -- 91
2019-06-10 01:00:00 7.8 16 Nordeste 25 Este 0 -- -- 88
2019-06-10 00:00:00 8.4 21 Este 32 Nordeste 0 -- -- 83
2019-06-09 23:00:00 8.9 25 Nordeste 38 Este 0 -- -- 80
2019-06-09 22:00:00 10.5 22 Nordeste 41 Nordeste 0 -- -- 74
2019-06-09 21:00:00 12.2 30 Nordeste 53 Nordeste 0 -- -- 67
2019-06-09 20:00:00 19.6 22 Oeste 32 Oeste 0 -- -- 26
2019-06-09 19:00:00 22.6 14 Oeste 30 Oeste 0 -- -- 23
2019-06-09 18:00:00 22.6 15 Oeste 34 Oeste 0 -- -- 24
2019-06-09 17:00:00 22.5 15 Oeste 32 Noroeste 0 -- -- 26
2019-06-09 16:00:00 21.6 14 Oeste 36 Oeste 0 -- -- 28
2019-06-09 15:00:00 21.6 18 Oeste 30 Oeste 0 -- -- 31
2019-06-09 14:00:00 19.5 13 Oeste 29 Oeste 0 -- -- 37
2019-06-09 13:00:00 19 10 Oeste 21 Noroeste 0 -- -- 43
2019-06-09 12:00:00 15.9 5 Noroeste 14 Noroeste 0 -- -- 55
2019-06-09 11:00:00 14.6 7 Noroeste 13 Noroeste 0 -- -- 63
2019-06-09 10:00:00 12.1 0 Calma 6 Oeste 0 -- -- 74
2019-06-09 09:00:00 10 2 Este 11 Este 0 -- -- 91
2019-06-09 08:00:00 8.4 8 Este 15 Este 0 -- -- 98
2019-06-09 07:00:00 7.8 12 Este 17 Este 0 -- -- 98
2019-06-09 06:00:00 7.4 10 Nordeste 15 Nordeste 0 -- -- 98
2019-06-09 05:00:00 6.3 8 Nordeste 14 Este 0 -- -- 97
2019-06-09 04:00:00 7.4 10 Nordeste 27 Este 0 -- -- 96
2019-06-09 03:00:00 8.1 14 Nordeste 31 Este 0 -- -- 95
2019-06-09 02:00:00 8.4 16 Este 27 Nordeste 0 -- -- 93
2019-06-09 01:00:00 9.5 20 Este 31 Nordeste 0 -- -- 87
2019-06-09 00:00:00 11.2 22 Nordeste 38 Nordeste 0 -- -- 81
2019-06-08 23:00:00 12.6 22 Nordeste 30 Nordeste 0 -- -- 77
2019-06-08 22:00:00 17.2 12 Este 19 Este 0 -- -- 41
2019-06-08 21:00:00 19.1 11 Este 16 Este 0 -- -- 32
2019-06-08 20:00:00 20.7 11 Norte 23 Noroeste 0 -- -- 24
2019-06-08 19:00:00 23 2 Oeste 14 Sudoeste 0 -- -- 22
2019-06-08 18:00:00 23.1 4 Nordeste 20 Sudoeste 0 -- -- 22
2019-06-08 17:00:00 22.7 12 Sudoeste 28 Sudoeste 0 -- -- 22
2019-06-08 16:00:00 22 8 Sudeste 30 Sur 0 -- -- 24
2019-06-08 15:00:00 20.5 10 Sudeste 27 Sur 0 -- -- 24
2019-06-08 14:00:00 20.4 8 Oeste 20 Sudoeste 0 -- -- 28
2019-06-08 13:00:00 18.8 10 Este 26 Este 0 -- -- 30
2019-06-08 12:00:00 17.3 11 Este 29 Este 0 -- -- 35
2019-06-08 11:00:00 14.7 12 Este 22 Este 0 -- -- 43
2019-06-08 10:00:00 11 13 Este 19 Sudeste 0 -- -- 59
2019-06-08 09:00:00 7.8 13 Este 19 Este 0 -- -- 77
2019-06-08 08:00:00 5.7 15 Este 20 Este 0 -- -- 91
2019-06-08 07:00:00 3.6 14 Este 19 Este 0 -- -- 96
2019-06-08 06:00:00 3.7 16 Este 19 Este 0 -- -- 96
2019-06-08 05:00:00 3.7 10 Este 12 Este 0 -- -- 96
2019-06-08 04:00:00 4.1 12 Nordeste 17 Nordeste 0 -- -- 96
2019-06-08 03:00:00 4.3 9 Nordeste 17 Nordeste 0 -- -- 94
2019-06-08 02:00:00 4.3 11 Norte 15 Norte 0 -- -- 88
2019-06-08 01:00:00 6.2 14 Noroeste 15 Noroeste 0 -- -- 75
2019-06-08 00:00:00 6.8 13 Noroeste 18 Noroeste 0 -- -- 68
2019-06-07 23:00:00 8.8 12 Noroeste 28 Noroeste 0 -- -- 60
2019-06-07 22:00:00 10.6 9 Oeste 17 Oeste 0 -- -- 48
2019-06-07 21:00:00 13.8 16 Oeste 32 Sudoeste 0 -- -- 33
2019-06-07 20:00:00 16.1 20 Oeste 35 Oeste 0 -- -- 29
2019-06-07 19:00:00 17.2 16 Oeste 33 Oeste 0 -- -- 30
2019-06-07 18:00:00 17.4 22 Oeste 36 Oeste 0 -- -- 30
2019-06-07 17:00:00 16 13 Oeste 33 Noroeste 0 -- -- 30
2019-06-07 16:00:00 17.3 19 Oeste 37 Oeste 0 -- -- 32
2019-06-07 15:00:00 15.4 18 Oeste 35 Oeste 0 -- -- 36
2019-06-07 14:00:00 14.8 22 Oeste 39 Oeste 0 -- -- 38
2019-06-07 13:00:00 12.8 22 Oeste 39 Oeste 0 -- -- 43
2019-06-07 12:00:00 12.5 21 Oeste 35 Oeste 0 -- -- 51
2019-06-07 11:00:00 10.1 24 Oeste 40 Oeste 0 -- -- 62
2019-06-07 10:00:00 8.9 29 Oeste 42 Oeste 0 -- -- 68
2019-06-07 09:00:00 7.5 28 Oeste 41 Oeste 0 -- -- 77
2019-06-07 08:00:00 6 29 Oeste 40 Oeste 0 -- -- 88
2019-06-07 07:00:00 5.5 21 Oeste 38 Oeste 0 -- -- 91
2019-06-07 06:00:00 5.5 26 Sudoeste 42 Sudoeste 0 -- -- 92
2019-06-07 05:00:00 5.3 29 Sudoeste 49 Oeste 0 -- -- 91
2019-06-07 04:00:00 5.8 31 Oeste 45 Sudoeste 0 -- -- 91
2019-06-07 03:00:00 6 28 Oeste 42 Sudoeste 0 -- -- 91
2019-06-07 02:00:00 6.8 27 Oeste 45 Oeste 0 -- -- 91
2019-06-07 01:00:00 7.1 30 Oeste 47 Oeste 0.2 -- -- 86
2019-06-07 00:00:00 7.1 31 Oeste 53 Oeste 0.9 -- -- 94
2019-06-06 23:00:00 8.9 27 Oeste 68 Sudoeste 0.7 -- -- 95
2019-06-06 22:00:00 14.6 40 Sudoeste 61 Sudoeste 0 -- -- 56
2019-06-06 21:00:00 12.2 30 Oeste 67 Sudoeste 0.1 -- -- 77
2019-06-06 20:00:00 17 44 Sudoeste 66 Sudoeste 0 -- -- 34
2019-06-06 19:00:00 18.7 37 Sudoeste 57 Sudoeste 0 -- -- 30
2019-06-06 18:00:00 19.8 38 Sudoeste 62 Sudoeste 0 -- -- 25
2019-06-06 17:00:00 20.8 37 Sudoeste 61 Sudoeste 0 -- -- 23
2019-06-06 16:00:00 18.7 31 Sudoeste 49 Sudoeste 0 -- -- 24
2019-06-06 15:00:00 17.6 25 Sudoeste 44 Sudoeste 0 -- -- 27
2019-06-06 14:00:00 17 23 Sudoeste 37 Sudoeste 0 -- -- 31
2019-06-06 13:00:00 16.7 19 Sudoeste 35 Sudoeste 0 -- -- 34
2019-06-06 12:00:00 15 19 Sudoeste 35 Sudoeste 0 -- -- 39
2019-06-06 11:00:00 -- 16 Sur 26 Sudoeste 0 -- -- --
2019-06-06 10:00:00 -- 10 Sudoeste 19 Sudoeste 0 -- -- --
2019-06-06 09:00:00 8 5 Oeste 10 Oeste 0 -- -- 74
2019-06-06 08:00:00 5.7 3 Noroeste 10 Oeste 0 -- -- 92
2019-06-06 07:00:00 3 5 Oeste 12 Oeste 0 -- -- 94
2019-06-06 06:00:00 3.3 8 Sudoeste 12 Sudoeste 0 -- -- 96
2019-06-06 05:00:00 4 10 Oeste 12 Oeste 0 -- -- 96
2019-06-06 04:00:00 4.9 5 Sudoeste 8 Sur 0 -- -- 95
2019-06-06 03:00:00 6.1 4 Sudeste 6 Sudeste 0 -- -- 92
2019-06-06 02:00:00 5.8 4 Nordeste 8 Este 0 -- -- 92
2019-06-06 01:00:00 7.1 4 Nordeste 12 Nordeste 0 -- -- 88
2019-06-06 00:00:00 8.4 2 Nordeste 12 Nordeste 0 -- -- 87
2019-06-05 23:00:00 9.1 8 Norte 19 Norte 0 -- -- 76
2019-06-05 22:00:00 10.7 13 Noroeste 28 Noroeste 0 -- -- 48
2019-06-05 21:00:00 12.5 18 Noroeste 34 Noroeste 0 -- -- 40
2019-06-05 20:00:00 14.2 26 Oeste 37 Oeste 0 -- -- 34
2019-06-05 19:00:00 15.1 23 Noroeste 40 Noroeste 0 -- -- 28
2019-06-05 18:00:00 16.5 22 Noroeste 37 Noroeste 0 -- -- 32
2019-06-05 17:00:00 16.6 20 Oeste 35 Oeste 0 -- -- 32
2019-06-05 16:00:00 15.9 21 Oeste 38 Oeste 0 -- -- 34
2019-06-05 15:00:00 14.7 30 Oeste 39 Oeste 0 -- -- 37
2019-06-05 14:00:00 14 24 Noroeste 41 Oeste 0 -- -- 41
2019-06-05 13:00:00 14.3 27 Noroeste 37 Oeste 0 -- -- 43
2019-06-05 12:00:00 12.9 19 Noroeste 32 Noroeste 0 -- -- 53
2019-06-05 11:00:00 10.5 15 Noroeste 26 Oeste 0 -- -- 66
2019-06-05 10:00:00 9.3 15 Oeste 27 Oeste 0 -- -- 80
2019-06-05 09:00:00 7.8 21 Oeste 28 Oeste 0 -- -- 87
2019-06-05 08:00:00 7.6 2 Sudeste 10 Este 0 -- -- 95
2019-06-05 07:00:00 7.2 7 Nordeste 12 Nordeste 0 -- -- 97
2019-06-05 06:00:00 7.2 8 Nordeste 19 Este 0 -- -- 96
2019-06-05 05:00:00 7.4 12 Este 23 Este 0.1 -- -- 96
2019-06-05 04:00:00 7.5 16 Nordeste 28 Este 1.3 -- -- 98
2019-06-05 03:00:00 7.5 13 Nordeste 27 Nordeste 0.9 -- -- 98
2019-06-05 02:00:00 8.8 15 Nordeste 30 Nordeste 0.7 -- -- 93
2019-06-05 01:00:00 10.7 18 Norte 26 Noroeste 0 -- -- 77
2019-06-05 00:00:00 14.1 12 Oeste 24 Oeste 0 -- -- 49
2019-06-04 23:00:00 14.6 15 Oeste 29 Oeste 0 -- -- 51
2019-06-04 22:00:00 15.2 22 Oeste 40 Oeste 0 -- -- 50
2019-06-04 21:00:00 16.8 23 Oeste 38 Noroeste 0 -- -- 49
2019-06-04 20:00:00 17.6 29 Oeste 44 Oeste 0 -- -- 47
2019-06-04 19:00:00 20.4 32 Oeste 47 Oeste 0 -- -- 45
2019-06-04 18:00:00 20.2 27 Oeste 44 Noroeste 0 -- -- 43
2019-06-04 17:00:00 20.1 21 Oeste 39 Oeste 0 -- -- 41
2019-06-04 16:00:00 21 24 Oeste 37 Oeste 0 -- -- 40
2019-06-04 15:00:00 20.9 23 Oeste 37 Oeste 0 -- -- 42
2019-06-04 14:00:00 19.6 21 Oeste 41 Oeste 0 -- -- 46
2019-06-04 13:00:00 18.1 27 Oeste 42 Oeste 0 -- -- 54
2019-06-04 12:00:00 17 28 Oeste 41 Oeste 0 -- -- 57
2019-06-04 11:00:00 15.9 21 Oeste 32 Sudoeste 0 -- -- 58
2019-06-04 10:00:00 14.6 22 Sudoeste 35 Oeste 0 -- -- 65
2019-06-04 09:00:00 12.5 24 Oeste 36 Oeste 0 -- -- 78
2019-06-04 08:00:00 11.3 14 Sudoeste 25 Oeste 0 -- -- 91
2019-06-04 07:00:00 10 9 Sudoeste 21 Oeste 0 -- -- 95
2019-06-04 06:00:00 10.8 13 Oeste 27 Oeste 0 -- -- 95
2019-06-04 05:00:00 12.2 19 Oeste 31 Oeste 0 -- -- 89
2019-06-04 04:00:00 13.6 19 Oeste 30 Oeste 0 -- -- 84
2019-06-04 03:00:00 14.7 18 Oeste 30 Oeste 0 -- -- 81
2019-06-04 02:00:00 16.3 18 Oeste 28 Oeste 0 -- -- 75
2019-06-04 01:00:00 17.9 19 Oeste 28 Oeste 0 -- -- 67
2019-06-04 00:00:00 18.3 17 Oeste 22 Oeste 0 -- -- 58
2019-06-03 23:00:00 17.4 11 Sudoeste 17 Oeste 0 -- -- 50
2019-06-03 22:00:00 20.3 14 Oeste 24 Oeste 0 -- -- 42
2019-06-03 21:00:00 24.2 21 Oeste 38 Oeste 0 -- -- 35
2019-06-03 20:00:00 26.1 26 Oeste 43 Oeste 0 -- -- 33
2019-06-03 19:00:00 29.2 25 Oeste 43 Oeste 0 -- -- 30
2019-06-03 18:00:00 28.4 26 Oeste 42 Oeste 0 -- -- 29
2019-06-03 17:00:00 28.8 17 Oeste 34 Oeste 0 -- -- 30
2019-06-03 16:00:00 29 21 Sudoeste 42 Sudoeste 0 -- -- 30
2019-06-03 15:00:00 27.7 14 Sudoeste 32 Sudoeste 0 -- -- 30
2019-06-03 14:00:00 26.1 13 Sudoeste 28 Sudoeste 0 -- -- 32
2019-06-03 13:00:00 25.7 11 Oeste 26 Sudoeste 0 -- -- 34
2019-06-03 12:00:00 24 12 Sudoeste 22 Oeste 0 -- -- 37
2019-06-03 11:00:00 21.6 12 Oeste 24 Oeste 0 -- -- 41
2019-06-03 10:00:00 19 14 Oeste 21 Oeste 0 -- -- 45
2019-06-03 09:00:00 16.4 7 Sudoeste 14 Sudoeste 0 -- -- 54
2019-06-03 08:00:00 13.5 8 Sudoeste 13 Oeste 0 -- -- 56
2019-06-03 07:00:00 14.6 12 Oeste 26 Oeste 0 -- -- 51
2019-06-03 06:00:00 15.9 12 Oeste 21 Oeste 0 -- -- 50
2019-06-03 05:00:00 16.6 16 Oeste 23 Oeste 0 -- -- 48
2019-06-03 04:00:00 16.1 10 Oeste 17 Oeste 0 -- -- 49
2019-06-03 03:00:00 15.4 13 Oeste 18 Oeste 0 -- -- 45
2019-06-03 02:00:00 16.6 15 Oeste 19 Oeste 0 -- -- 42
2019-06-03 01:00:00 18 14 Oeste 17 Oeste 0 -- -- 40
2019-06-03 00:00:00 17.5 12 Oeste 17 Oeste 0 -- -- 39
2019-06-02 23:00:00 18.5 12 Noroeste 18 Noroeste 0 -- -- 35
2019-06-02 22:00:00 21.2 10 Oeste 22 Oeste 0 -- -- 30
2019-06-02 21:00:00 24.9 18 Oeste 32 Oeste 0 -- -- 27
2019-06-02 20:00:00 26.1 25 Oeste 40 Oeste 0 -- -- 25
2019-06-02 19:00:00 28.2 28 Oeste 43 Oeste 0 -- -- 25
2019-06-02 18:00:00 28.7 28 Oeste 49 Oeste 0 -- -- 25
2019-06-02 17:00:00 29.3 27 Oeste 49 Oeste 0 -- -- 24
2019-06-02 16:00:00 29.1 23 Oeste 44 Oeste 0 -- -- 24
2019-06-02 15:00:00 28.8 28 Oeste 41 Oeste 0 -- -- 26
2019-06-02 14:00:00 29.4 25 Oeste 42 Oeste 0 -- -- 29
2019-06-02 13:00:00 28.7 13 Oeste 34 Oeste 0 -- -- 31
2019-06-02 12:00:00 27.7 14 Sudoeste 24 Oeste 0 -- -- 35
2019-06-02 11:00:00 24.3 8 Oeste 17 Oeste 0 -- -- 47
2019-06-02 10:00:00 22.4 11 Sudoeste 15 Oeste 0 -- -- 50
2019-06-02 09:00:00 19.3 4 Oeste 8 Oeste 0 -- -- 54
2019-06-02 08:00:00 14.9 5 Oeste 13 Oeste 0 -- -- 67
2019-06-02 07:00:00 16 8 Sudeste 12 Sudeste 0 -- -- 57
2019-06-02 06:00:00 16.4 9 Sudeste 11 Sudeste 0 -- -- 54
2019-06-02 05:00:00 16.4 10 Este 12 Sudeste 0 -- -- 56
2019-06-02 04:00:00 17.6 4 Sudoeste 10 Sudoeste 0 -- -- 54
2019-06-02 03:00:00 16.2 0 Calma 19 Este 0 -- -- 62
2019-06-02 02:00:00 17 9 Este 15 Noroeste 0 -- -- 60
2019-06-02 01:00:00 17.5 13 Noroeste 19 Noroeste 0 -- -- 45
2019-06-02 00:00:00 19.6 13 Oeste 17 Oeste 0 -- -- 39
2019-06-01 23:00:00 19.9 10 Sudoeste 14 Sudoeste 0 -- -- 36
2019-06-01 22:00:00 24.8 8 Sudoeste 10 Oeste 0 -- -- 27
2019-06-01 21:00:00 27.5 9 Oeste 19 Oeste 0 -- -- 26
2019-06-01 20:00:00 30.9 10 Oeste 55 Oeste 0 -- -- 23
2019-06-01 19:00:00 31.7 14 Noroeste 27 Oeste 0 -- -- 22
2019-06-01 18:00:00 31.2 8 Sudoeste 23 Noroeste 0 -- -- 23
2019-06-01 17:00:00 31.9 9 Oeste 26 Nordeste 0 -- -- 24
2019-06-01 16:00:00 30.4 9 Este 26 Este 0 -- -- 24
2019-06-01 15:00:00 29.6 9 Este 22 Noroeste 0 -- -- 25
2019-06-01 14:00:00 29.4 2 Noroeste 22 Norte 0 -- -- 27
2019-06-01 13:00:00 28.2 3 Sudoeste 13 Sur 0 -- -- 31
2019-06-01 12:00:00 26.3 3 Norte 10 Nordeste 0 -- -- 35
2019-06-01 11:00:00 23.5 5 Este 12 Este 0 -- -- 41
2019-06-01 10:00:00 20.1 7 Este 17 Sudeste 0 -- -- 47
2019-06-01 09:00:00 17.5 12 Este 16 Este 0 -- -- 51
2019-06-01 08:00:00 15 6 Este 14 Sudeste 0 -- -- 61
2019-06-01 07:00:00 11.8 12 Este 16 Este 0 -- -- 64
2019-06-01 06:00:00 13.1 15 Este 22 Sudeste 0 -- -- 58
2019-06-01 05:00:00 14.4 16 Sudeste 25 Sudeste 0 -- -- 54
2019-06-01 04:00:00 15 17 Este 22 Este 0 -- -- 54
2019-06-01 03:00:00 15.3 18 Este 21 Este 0 -- -- 53
2019-06-01 02:00:00 15 15 Este 19 Este 0 -- -- 51
2019-06-01 01:00:00 16.3 13 Este 17 Este 0 -- -- 44
2019-06-01 00:00:00 17.2 13 Este 16 Este 0 -- -- 40
2019-05-31 23:00:00 18.6 12 Este 17 Este 0 -- -- 33
2019-05-31 22:00:00 22.7 5 Este 9 Nordeste 0 -- -- 28
2019-05-31 21:00:00 26.4 7 Nordeste 18 Norte 0 -- -- 26
2019-05-31 20:00:00 29.3 8 Nordeste 18 Nordeste 0 -- -- 22
2019-05-31 19:00:00 30.2 10 Nordeste 22 Nordeste 0 -- -- 22
2019-05-31 18:00:00 28.5 8 Norte 23 Nordeste 0 -- -- 24
2019-05-31 17:00:00 28.4 10 Nordeste 24 Nordeste 0 -- -- 25
2019-05-31 16:00:00 27.9 8 Nordeste 18 Noroeste 0 -- -- 28
2019-05-31 15:00:00 27.2 11 Este 19 Nordeste 0 -- -- 29
2019-05-31 14:00:00 25.8 5 Nordeste 20 Nordeste 0 -- -- 31
2019-05-31 13:00:00 24.8 8 Este 20 Sudeste 0 -- -- 33
2019-05-31 12:00:00 23.5 6 Este 17 Nordeste 0 -- -- 39
2019-05-31 11:00:00 21.2 6 Este 12 Este 0 -- -- 47
2019-05-31 10:00:00 18.4 7 Este 18 Este 0 -- -- 58
2019-05-31 09:00:00 15.9 14 Este 19 Este 0 -- -- 65
2019-05-31 08:00:00 13.7 10 Este 14 Este 0 -- -- 76
2019-05-31 07:00:00 10.5 12 Este 15 Este 0 -- -- 85
2019-05-31 06:00:00 9.9 12 Este 16 Este 0 -- -- 85
2019-05-31 05:00:00 11.5 10 Este 15 Este 0 -- -- 83
2019-05-31 04:00:00 11 11 Este 14 Este 0 -- -- 82
2019-05-31 03:00:00 12.4 11 Nordeste 16 Este 0 -- -- 78
2019-05-31 02:00:00 14.3 15 Este 45 Este 0 -- -- 69
2019-05-31 01:00:00 15.7 15 Este 21 Este 0 -- -- 58
2019-05-31 00:00:00 16.5 16 Este 23 Este 0 -- -- 51
2019-05-30 23:00:00 18.3 14 Este 24 Este 0 -- -- 44
2019-05-30 22:00:00 20.5 13 Este 24 Este 0 -- -- 37
2019-05-30 21:00:00 24 15 Este 27 Este 0 -- -- 33
2019-05-30 20:00:00 26.8 15 Este 29 Este 0 -- -- 29
2019-05-30 19:00:00 28.1 18 Este 41 Este 0 -- -- 29
2019-05-30 18:00:00 26.7 19 Nordeste 28 Nordeste 0 -- -- 28
2019-05-30 17:00:00 26.5 13 Norte 29 Nordeste 0 -- -- 30
2019-05-30 16:00:00 26 14 Nordeste 29 Nordeste 0 -- -- 31
2019-05-30 15:00:00 25 11 Nordeste 23 Norte 0 -- -- 32
2019-05-30 14:00:00 23.3 12 Nordeste 23 Nordeste 0 -- -- 34
2019-05-30 13:00:00 21.9 8 Este 21 Nordeste 0 -- -- 41
2019-05-30 12:00:00 20.1 12 Nordeste 24 Nordeste 0 -- -- 48
2019-05-30 11:00:00 18 14 Nordeste 20 Nordeste 0 -- -- 53
2019-05-30 10:00:00 15.4 6 Nordeste 13 Este 0 -- -- 58
2019-05-30 09:00:00 13.4 8 Nordeste 13 Este 0 -- -- 63
2019-05-30 08:00:00 10.6 5 Este 11 Este 0 -- -- 80
2019-05-30 07:00:00 7.1 10 Este 16 Este 0 -- -- 91
2019-05-30 06:00:00 6.8 12 Nordeste 13 Nordeste 0 -- -- 88
2019-05-30 05:00:00 8.3 12 Este 19 Este 0 -- -- 82
2019-05-30 04:00:00 9.3 13 Este 23 Este 0 -- -- 82
2019-05-30 03:00:00 9.4 14 Este 22 Este 0 -- -- 87
2019-05-30 02:00:00 10 16 Este 25 Este 0 -- -- 82
2019-05-30 01:00:00 10.5 14 Este 21 Este 0 -- -- 80
2019-05-30 00:00:00 11 12 Este 16 Este 0 -- -- 74
2019-05-29 23:00:00 12.8 13 Este 24 Este 0 -- -- 64
2019-05-29 22:00:00 14.9 14 Este 26 Este 0 -- -- 55
2019-05-29 21:00:00 17.9 18 Este 27 Nordeste 0 -- -- 43
2019-05-29 20:00:00 20.3 18 Este 58 Nordeste 0 -- -- 40
2019-05-29 19:00:00 21.8 19 Nordeste 30 Nordeste 0 -- -- 39
2019-05-29 18:00:00 21.1 17 Nordeste 30 Este 0 -- -- 40
2019-05-29 17:00:00 20.5 19 Nordeste 37 Nordeste 0 -- -- 41
2019-05-29 16:00:00 19.9 21 Nordeste 37 Nordeste 0 -- -- 41
2019-05-29 15:00:00 18.2 21 Nordeste 40 Nordeste 0 -- -- 45
2019-05-29 14:00:00 17.5 18 Este 32 Este 0 -- -- 48
2019-05-29 13:00:00 16.3 14 Este 30 Nordeste 0 -- -- 50
2019-05-29 12:00:00 14.8 14 Nordeste 28 Este 0 -- -- 51
2019-05-29 11:00:00 14.1 14 Nordeste 26 Nordeste 0 -- -- 55
2019-05-29 10:00:00 12.5 15 Nordeste 30 Nordeste 0 -- -- 62
2019-05-29 09:00:00 10.1 15 Nordeste 21 Este 0 -- -- 70
2019-05-29 08:00:00 7.6 9 Este 17 Este 0 -- -- 80
2019-05-29 07:00:00 5.3 11 Este 17 Este 0 -- -- 89
2019-05-29 06:00:00 3.9 9 Este 18 Este 0 -- -- 94
2019-05-29 05:00:00 4.5 9 Este 14 Este 0 -- -- 93
2019-05-29 04:00:00 5.2 10 Este 20 Este 0 -- -- 88
2019-05-29 03:00:00 6.3 16 Este 26 Este 0 -- -- 83
2019-05-29 02:00:00 7 20 Este 30 Este 0 -- -- 80
2019-05-29 01:00:00 7.3 21 Este 30 Este 0 -- -- 76
2019-05-29 00:00:00 7.7 19 Este 31 Este 0 -- -- 73
2019-05-28 23:00:00 8.9 23 Este 36 Este 0 -- -- 62
2019-05-28 22:00:00 10.3 23 Este 37 Este 0 -- -- 51
2019-05-28 21:00:00 13 25 Nordeste 36 Nordeste 0 -- -- 45
2019-05-28 20:00:00 15.9 25 Nordeste 39 Este 0 -- -- 44
2019-05-28 19:00:00 18.4 27 Este 41 Este 0 -- -- 41
2019-05-28 18:00:00 19.9 12 Nordeste 21 Nordeste 0 -- -- 36
2019-05-28 17:00:00 19.5 7 Este 30 Nordeste 0 -- -- 37
2019-05-28 16:00:00 18.8 5 Norte 25 Nordeste 0 -- -- 40
2019-05-28 15:00:00 17.4 13 Nordeste 25 Nordeste 0 -- -- 42
2019-05-28 14:00:00 15.8 11 Norte 30 Nordeste 0 -- -- 46
2019-05-28 13:00:00 15.1 12 Nordeste 28 Nordeste 0 -- -- 48
2019-05-28 12:00:00 13.2 13 Nordeste 33 Nordeste 0 -- -- 51
2019-05-28 11:00:00 12.4 19 Nordeste 32 Este 0 -- -- 54
2019-05-28 10:00:00 10.1 23 Nordeste 36 Nordeste 0 -- -- 64
2019-05-28 09:00:00 9.3 22 Este 31 Este 0 -- -- 74
2019-05-28 08:00:00 7.2 11 Este 16 Este 0 -- -- 85
2019-05-28 07:00:00 5.4 13 Este 26 Este 0 -- -- 90
2019-05-28 06:00:00 6 18 Este 25 Este 0 -- -- 88
2019-05-28 05:00:00 6.3 15 Este 31 Este 0 -- -- 86
2019-05-28 04:00:00 6.6 18 Este 28 Este 0 -- -- 84
2019-05-28 03:00:00 6.8 19 Este 32 Este 0 -- -- 84
2019-05-28 02:00:00 7.6 22 Este 35 Este 0 -- -- 84
2019-05-28 01:00:00 8 21 Este 33 Este 0 -- -- 85
2019-05-28 00:00:00 8.9 21 Este 35 Este 0 -- -- 85
2019-05-27 23:00:00 10.3 26 Este 40 Este 0 -- -- 79
2019-05-27 22:00:00 12.1 24 Este 37 Nordeste 0 -- -- 75
2019-05-27 21:00:00 15.7 23 Este 38 Este 0 -- -- 58
2019-05-27 20:00:00 19.3 24 Este 35 Nordeste 0 -- -- 47
2019-05-27 19:00:00 22.3 21 Este 30 Este 0 -- -- 41
2019-05-27 18:00:00 21.6 17 Este 28 Este 0 -- -- 41
2019-05-27 17:00:00 21.2 8 Norte 21 Nordeste 0 -- -- 38
2019-05-27 16:00:00 22 5 Norte 21 Nordeste 0 -- -- 38
2019-05-27 15:00:00 21.2 6 Norte 22 Este 0 -- -- 41
2019-05-27 14:00:00 20.3 8 Este 18 Nordeste 0 -- -- 44
2019-05-27 13:00:00 18.9 6 Este 17 Sudeste 0 -- -- 48
2019-05-27 12:00:00 17 6 Nordeste 15 Norte 0 -- -- 54
2019-05-27 11:00:00 15.6 5 Nordeste 12 Este 0 -- -- 58
2019-05-27 10:00:00 13.1 6 Este 13 Este 0 -- -- 67
2019-05-27 09:00:00 10.8 10 Este 14 Este 0 -- -- 72
2019-05-27 08:00:00 8.2 0 Calma 12 Este 0 -- -- 90
2019-05-27 07:00:00 6.7 8 Este 15 Este 0 -- -- 94
2019-05-27 06:00:00 7.7 13 Este 18 Este 0 -- -- 94
2019-05-27 05:00:00 7.9 13 Nordeste 17 Este 0 -- -- 93
2019-05-27 04:00:00 8.6 10 Este 17 Este 0 -- -- 93
2019-05-27 03:00:00 8.9 7 Este 20 Este 0 -- -- 91
2019-05-27 02:00:00 9.9 13 Este 22 Este 0 -- -- 91
2019-05-27 01:00:00 10.8 10 Este 24 Este 0 -- -- 85
2019-05-27 00:00:00 11.9 18 Este 26 Este 0 -- -- 80
2019-05-26 23:00:00 13.5 17 Este 29 Este 0 -- -- 69
2019-05-26 22:00:00 15.4 15 Este 30 Este 0 -- -- 51
2019-05-26 21:00:00 18.7 19 Este 29 Este 0 -- -- 41
2019-05-26 20:00:00 21.9 17 Este 31 Este 0 -- -- 38
2019-05-26 19:00:00 23.8 17 Este 26 Este 0 -- -- 38
2019-05-26 18:00:00 22.6 14 Nordeste 25 Nordeste 0 -- -- 38
2019-05-26 17:00:00 21.9 13 Nordeste 25 Este 0 -- -- 40
2019-05-26 16:00:00 20.8 13 Nordeste 27 Nordeste 0 -- -- 43
2019-05-26 15:00:00 19.1 9 Nordeste 23 Nordeste 0 -- -- 46
2019-05-26 14:00:00 18 13 Nordeste 27 Nordeste 0 -- -- 50
2019-05-26 13:00:00 16.1 11 Norte 24 Nordeste 0 -- -- 55
2019-05-26 12:00:00 15 13 Nordeste 24 Nordeste 0 -- -- 58
2019-05-26 11:00:00 13.4 10 Nordeste 25 Este 0 -- -- 64
2019-05-26 10:00:00 11.4 17 Este 23 Este 0 -- -- 73
2019-05-26 09:00:00 9.3 11 Este 19 Este 0 -- -- 85
2019-05-26 08:00:00 8.2 13 Este 17 Este 0 -- -- 91
2019-05-26 07:00:00 5.9 13 Este 19 Este 0 -- -- 96
2019-05-26 06:00:00 5.6 10 Este 16 Este 0 -- -- 95
2019-05-26 05:00:00 6 10 Este 17 Este 0 -- -- 94
2019-05-26 04:00:00 5.9 9 Este 18 Este 0 -- -- 92
2019-05-26 03:00:00 6.2 11 Este 19 Este 0 -- -- 88
2019-05-26 02:00:00 6.5 11 Este 18 Este 0 -- -- 85
2019-05-26 01:00:00 7.4 10 Este 25 Este 0 -- -- 81
2019-05-26 00:00:00 8.9 14 Este 24 Este 0 -- -- 78
2019-05-25 23:00:00 10.2 17 Este 27 Este 0 -- -- 67
2019-05-25 22:00:00 11.5 17 Este 27 Este 0 -- -- 59
2019-05-25 21:00:00 14 19 Este 34 Nordeste 0 -- -- 50
2019-05-25 20:00:00 16.6 22 Nordeste 32 Nordeste 0 -- -- 43
2019-05-25 19:00:00 18.8 17 Nordeste 33 Este 0 -- -- 41
2019-05-25 18:00:00 17.7 19 Este 35 Nordeste 0 -- -- 41
2019-05-25 17:00:00 18 20 Nordeste 39 Este 0 -- -- 40
2019-05-25 16:00:00 17.8 18 Nordeste 37 Nordeste 0 -- -- 41
2019-05-25 15:00:00 16.6 21 Nordeste 37 Este 0 -- -- 43
2019-05-25 14:00:00 15.2 17 Nordeste 35 Este 0 -- -- 46
2019-05-25 13:00:00 16.3 21 Este 37 Nordeste 0 -- -- 45
2019-05-25 12:00:00 15 21 Nordeste 37 Este 0 -- -- 48
2019-05-25 11:00:00 13.5 24 Nordeste 42 Este 0 -- -- 51
2019-05-25 10:00:00 11.6 26 Nordeste 35 Este 0 -- -- 60
2019-05-25 09:00:00 9.5 16 Nordeste 23 Nordeste 0 -- -- 79
2019-05-25 08:00:00 6.9 5 Nordeste 13 Este 0 -- -- 96
2019-05-25 07:00:00 5.3 11 Nordeste 17 Este 0 -- -- 97
2019-05-25 06:00:00 5.2 12 Este 18 Este 0 -- -- 97
2019-05-25 05:00:00 4.9 10 Este 16 Este 0 -- -- 96
2019-05-25 04:00:00 5.4 9 Este 14 Nordeste 0 -- -- 94
2019-05-25 03:00:00 6.5 13 Nordeste 21 Nordeste 0 -- -- 91
2019-05-25 02:00:00 7.2 14 Este 26 Nordeste 0 -- -- 88
2019-05-25 01:00:00 8 18 Nordeste 29 Nordeste 0 -- -- 87
2019-05-25 00:00:00 8.3 19 Nordeste 36 Nordeste 0 -- -- 85
2019-05-24 23:00:00 8.4 20 Nordeste 33 Este 0 -- -- 84
2019-05-24 22:00:00 9.4 24 Nordeste 37 Este 0 -- -- 76
2019-05-24 21:00:00 11.2 27 Este 44 Este 0 -- -- 64
2019-05-24 20:00:00 13.9 31 Este 45 Este 0 -- -- 50
2019-05-24 19:00:00 15.8 27 Nordeste 45 Nordeste 0 -- -- 46
2019-05-24 18:00:00 16.6 27 Nordeste 38 Nordeste 0 -- -- 44
2019-05-24 17:00:00 17.6 25 Nordeste 42 Nordeste 0 -- -- 42
2019-05-24 16:00:00 17.5 22 Nordeste 40 Nordeste 0 -- -- 41
2019-05-24 15:00:00 17.4 21 Nordeste 39 Nordeste 0 -- -- 44
2019-05-24 14:00:00 16.4 20 Nordeste 33 Nordeste 0 -- -- 43
2019-05-24 13:00:00 15.1 19 Nordeste 35 Este 0 -- -- 52
2019-05-24 12:00:00 13.5 19 Nordeste 32 Nordeste 0 -- -- 59
2019-05-24 11:00:00 12.6 19 Nordeste 31 Nordeste 0 -- -- 61
2019-05-24 10:00:00 11.6 18 Nordeste 27 Este 0 -- -- 66
2019-05-24 09:00:00 10.1 22 Nordeste 34 Nordeste 0 -- -- 73
2019-05-24 08:00:00 8.7 18 Nordeste 30 Nordeste 0 -- -- 81
2019-05-24 07:00:00 7.8 19 Nordeste 30 Nordeste 0 -- -- 87
2019-05-24 06:00:00 8.1 14 Nordeste 31 Este 0 -- -- 87
2019-05-24 05:00:00 8.8 21 Nordeste 33 Nordeste 0 -- -- 84
2019-05-24 04:00:00 9.1 18 Nordeste 33 Este 0 -- -- 84
2019-05-24 03:00:00 9.5 24 Este 33 Este 0 -- -- 84
2019-05-24 02:00:00 9.9 18 Nordeste 32 Nordeste 0 -- -- 84
2019-05-24 01:00:00 10.1 17 Nordeste 36 Nordeste 0 -- -- 88
2019-05-24 00:00:00 10.1 25 Nordeste 38 Nordeste 0 -- -- 91
2019-05-23 23:00:00 10.9 23 Nordeste 66 Nordeste 0 -- -- 87
2019-05-23 22:00:00 12.1 31 Nordeste 41 Nordeste 0 -- -- 81
2019-05-23 21:00:00 15.4 27 Nordeste 37 Nordeste 0 -- -- 68
2019-05-23 20:00:00 22.2 10 Oeste 21 Oeste 0 -- -- 37
2019-05-23 19:00:00 24.6 12 Noroeste 22 Noroeste 0 -- -- 38
2019-05-23 18:00:00 22.4 14 Oeste 25 Noroeste 0 -- -- 41
2019-05-23 17:00:00 22.9 3 Noroeste 17 Oeste 0 -- -- 41
2019-05-23 16:00:00 22.1 6 Nordeste 24 Noroeste 0 -- -- 45
2019-05-23 15:00:00 21.5 13 Noroeste 22 Norte 0 -- -- 47
2019-05-23 14:00:00 20.9 10 Noroeste 18 Oeste 0 -- -- 47
2019-05-23 13:00:00 19.3 10 Oeste 23 Noroeste 0 -- -- 53
2019-05-23 12:00:00 17.7 12 Oeste 21 Oeste 0 -- -- 58
2019-05-23 11:00:00 17.1 6 Sudoeste 14 Sudoeste 0 -- -- 60
2019-05-23 10:00:00 15.1 8 Sur 12 Sur 0 -- -- 61
2019-05-23 09:00:00 13.6 5 Sudeste 13 Sudeste 0 -- -- 66
2019-05-23 08:00:00 11.1 9 Sudeste 13 Sudeste 0 -- -- 79
2019-05-23 07:00:00 10.2 9 Este 12 Este 0 -- -- 80
2019-05-23 06:00:00 10 9 Este 11 Este 0 -- -- 78
2019-05-23 05:00:00 10.4 3 Este 10 Este 0 -- -- 74
2019-05-23 04:00:00 11.2 9 Este 14 Este 0 -- -- 70
2019-05-23 03:00:00 12.4 11 Este 14 Este 0 -- -- 57
2019-05-23 02:00:00 14.1 6 Sudeste 15 Este 0 -- -- 47
2019-05-23 01:00:00 14.4 4 Este 13 Oeste 0 -- -- 43
2019-05-23 00:00:00 16 8 Oeste 9 Oeste 0 -- -- 39
2019-05-22 23:00:00 17.9 6 Sur 8 Sudoeste 0 -- -- 33
2019-05-22 22:00:00 19.1 3 Oeste 9 Noroeste 0 -- -- 32
2019-05-22 21:00:00 21.5 9 Oeste 19 Oeste 0 -- -- 31
2019-05-22 20:00:00 24.5 14 Oeste 22 Oeste 0 -- -- 27
2019-05-22 19:00:00 25.2 12 Norte 24 Noroeste 0 -- -- 28
2019-05-22 18:00:00 23.9 8 Oeste 28 Noroeste 0 -- -- 27
2019-05-22 17:00:00 24.3 14 Noroeste 27 Norte 0 -- -- 28
2019-05-22 16:00:00 23.9 10 Oeste 29 Noroeste 0 -- -- 28
2019-05-22 15:00:00 22.7 8 Noroeste 21 Oeste 0 -- -- 30
2019-05-22 14:00:00 22.2 5 Oeste 20 Noroeste 0 -- -- 34
2019-05-22 13:00:00 20.1 5 Noroeste 13 Sudeste 0 -- -- 36
2019-05-22 12:00:00 19.1 5 Este 15 Sudeste 0 -- -- 41
2019-05-22 11:00:00 16.3 8 Este 27 Nordeste 0 -- -- 48
2019-05-22 10:00:00 12.6 8 Este 14 Este 0 -- -- 57
2019-05-22 09:00:00 10.6 10 Este 13 Este 0 -- -- 62
2019-05-22 08:00:00 7.8 7 Este 11 Este 0 -- -- 74
2019-05-22 07:00:00 5.2 8 Nordeste 13 Este 0 -- -- 83
2019-05-22 06:00:00 4.9 6 Nordeste 15 Este 0 -- -- 87
2019-05-22 05:00:00 4.8 12 Nordeste 19 Este 0 -- -- 93
2019-05-22 04:00:00 7.7 17 Este 22 Este 0 -- -- 76
2019-05-22 03:00:00 9.4 19 Este 27 Este 0 -- -- 70
2019-05-22 02:00:00 9.6 21 Este 25 Este 0 -- -- 69
2019-05-22 01:00:00 11.2 19 Este 32 Este 0 -- -- 63
2019-05-22 00:00:00 12.1 20 Este 30 Este 0 -- -- 59